CTN368 LDZA-LWSK
Flight info
| Callsign | CTN368 |
|---|---|
| Flight time | 1h 0m |
| Altitude | 33000 |
| Route | MOSAV DCT LURID DCT PODOB DCT MEDUX/N0406F270 M867 KOGAT |
| Aircraft | A319/M-SDE3FGHIRWY/LB1 |
Departure
| Time | 2026-04-26 12:27 |
|---|---|
| Airport | Zagreb Franjo Tuđman International Airport (LDZA) |
Arrival
| Time | 2026-04-26 13:27 |
|---|---|
| Airport | Skopje International Airport (LWSK) |
| Time | Latitude | Longitude | Altitude | Speed | Heading |
|---|---|---|---|---|---|
| 2026-04-26 11:13 | 45.74180 | 16.07836 | 359 ft | 0 kts | 136° |
| 2026-04-26 11:27 | 45.74180 | 16.07835 | 359 ft | 0 kts | 136° |
| 2026-04-26 12:18 | 45.74183 | 16.07830 | 359 ft | 3 kts | 137° |
| 2026-04-26 12:19 | 45.74204 | 16.07806 | 366 ft | 4 kts | 142° |
| 2026-04-26 12:19 | 45.74221 | 16.07786 | 364 ft | 4 kts | 140° |
| 2026-04-26 12:19 | 45.74243 | 16.07769 | 363 ft | 4 kts | 183° |
| 2026-04-26 12:19 | 45.74266 | 16.07782 | 362 ft | 4 kts | 225° |
| 2026-04-26 12:20 | 45.74279 | 16.07803 | 359 ft | 0 kts | 226° |
| 2026-04-26 12:22 | 45.74243 | 16.07746 | 365 ft | 20 kts | 228° |
| 2026-04-26 12:22 | 45.74140 | 16.07587 | 359 ft | 22 kts | 227° |
| 2026-04-26 12:22 | 45.74058 | 16.07430 | 365 ft | 17 kts | 278° |
| 2026-04-26 12:23 | 45.74111 | 16.07347 | 361 ft | 17 kts | 317° |
| 2026-04-26 12:23 | 45.74201 | 16.07227 | 359 ft | 18 kts | 315° |
| 2026-04-26 12:23 | 45.74170 | 16.07084 | 359 ft | 17 kts | 227° |
| 2026-04-26 12:23 | 45.74087 | 16.06958 | 363 ft | 18 kts | 226° |
| 2026-04-26 12:24 | 45.74002 | 16.06829 | 359 ft | 19 kts | 227° |
| 2026-04-26 12:24 | 45.73898 | 16.06671 | 362 ft | 25 kts | 226° |
| 2026-04-26 12:24 | 45.73762 | 16.06465 | 361 ft | 31 kts | 227° |
| 2026-04-26 12:25 | 45.73482 | 16.06038 | 359 ft | 28 kts | 227° |
| 2026-04-26 12:25 | 45.73349 | 16.05836 | 359 ft | 22 kts | 226° |
| 2026-04-26 12:25 | 45.73293 | 16.05689 | 359 ft | 5 kts | 311° |
| 2026-04-26 12:25 | 45.73326 | 16.05649 | 362 ft | 11 kts | 317° |
| 2026-04-26 12:26 | 45.73398 | 16.05552 | 362 ft | 14 kts | 320° |
| 2026-04-26 12:26 | 45.73441 | 16.05583 | 367 ft | 7 kts | 47° |
| 2026-04-26 12:26 | 45.73617 | 16.05848 | 361 ft | 76 kts | 47° |
| 2026-04-26 12:26 | 45.74136 | 16.06639 | 361 ft | 140 kts | 47° |
| 2026-04-26 12:27 | 45.74842 | 16.07737 | 817 ft | 148 kts | 49° |
| 2026-04-26 12:27 | 45.75443 | 16.08930 | 1530 ft | 148 kts | 64° |
| 2026-04-26 12:27 | 45.75827 | 16.10267 | 2193 ft | 149 kts | 76° |
| 2026-04-26 12:27 | 45.76025 | 16.11834 | 2590 ft | 171 kts | 87° |
| 2026-04-26 12:28 | 45.75947 | 16.13642 | 2929 ft | 194 kts | 101° |
| 2026-04-26 12:28 | 45.75631 | 16.15668 | 3394 ft | 220 kts | 103° |
| 2026-04-26 12:28 | 45.75291 | 16.17889 | 4114 ft | 233 kts | 102° |
| 2026-04-26 12:28 | 45.74877 | 16.20183 | 4945 ft | 242 kts | 113° |
| 2026-04-26 12:29 | 45.74045 | 16.22299 | 5704 ft | 252 kts | 121° |
| 2026-04-26 12:29 | 45.73123 | 16.24481 | 6570 ft | 259 kts | 121° |
| 2026-04-26 12:29 | 45.71205 | 16.29030 | 8305 ft | 271 kts | 121° |
| 2026-04-26 12:30 | 45.70233 | 16.31337 | 9214 ft | 276 kts | 120° |
| 2026-04-26 12:30 | 45.69233 | 16.33710 | 10117 ft | 281 kts | 120° |
| 2026-04-26 12:30 | 45.68213 | 16.36129 | 10933 ft | 285 kts | 120° |
| 2026-04-26 12:31 | 45.66472 | 16.41318 | 12316 ft | 304 kts | 104° |
| 2026-04-26 12:31 | 45.65868 | 16.44339 | 12624 ft | 328 kts | 104° |
| 2026-04-26 12:31 | 45.65232 | 16.47545 | 12977 ft | 348 kts | 104° |
| 2026-04-26 12:31 | 45.64562 | 16.50911 | 13665 ft | 355 kts | 104° |
| 2026-04-26 12:32 | 45.63872 | 16.54333 | 14399 ft | 360 kts | 104° |
| 2026-04-26 12:32 | 45.63164 | 16.57801 | 15122 ft | 364 kts | 104° |
| 2026-04-26 12:32 | 45.61725 | 16.64810 | 16554 ft | 371 kts | 104° |
| 2026-04-26 12:33 | 45.61002 | 16.68333 | 17237 ft | 375 kts | 104° |
| 2026-04-26 12:33 | 45.60262 | 16.71935 | 17946 ft | 379 kts | 104° |
| 2026-04-26 12:33 | 45.59514 | 16.75571 | 18612 ft | 383 kts | 104° |
| 2026-04-26 12:33 | 45.58756 | 16.79239 | 19214 ft | 386 kts | 104° |
| 2026-04-26 12:34 | 45.58002 | 16.82877 | 19836 ft | 389 kts | 104° |
| 2026-04-26 12:34 | 45.57233 | 16.86599 | 20469 ft | 392 kts | 105° |
| 2026-04-26 12:34 | 45.56240 | 16.90246 | 21078 ft | 397 kts | 115° |
| 2026-04-26 12:34 | 45.54767 | 16.93606 | 21679 ft | 402 kts | 127° |
| 2026-04-26 12:35 | 45.52850 | 16.96542 | 22280 ft | 407 kts | 137° |
| 2026-04-26 12:35 | 45.50626 | 16.99075 | 22870 ft | 411 kts | 141° |
| 2026-04-26 12:35 | 45.48374 | 17.01572 | 23452 ft | 415 kts | 141° |
| 2026-04-26 12:35 | 45.46091 | 17.04104 | 23969 ft | 418 kts | 141° |
| 2026-04-26 12:36 | 45.43783 | 17.06662 | 24449 ft | 420 kts | 141° |
| 2026-04-26 12:36 | 45.41457 | 17.09232 | 24937 ft | 423 kts | 141° |
| 2026-04-26 12:36 | 45.39125 | 17.11809 | 25406 ft | 425 kts | 141° |
| 2026-04-26 12:36 | 45.36808 | 17.14369 | 25863 ft | 428 kts | 142° |
| 2026-04-26 12:37 | 45.34444 | 17.16975 | 26329 ft | 430 kts | 142° |
| 2026-04-26 12:37 | 45.32068 | 17.19587 | 26787 ft | 432 kts | 142° |
| 2026-04-26 12:37 | 45.29681 | 17.22207 | 27232 ft | 434 kts | 142° |
| 2026-04-26 12:37 | 45.27276 | 17.24847 | 27663 ft | 437 kts | 142° |
| 2026-04-26 12:38 | 45.24854 | 17.27506 | 28075 ft | 441 kts | 142° |
| 2026-04-26 12:38 | 45.22452 | 17.30142 | 28534 ft | 442 kts | 142° |
| 2026-04-26 12:38 | 45.20012 | 17.32821 | 28989 ft | 444 kts | 142° |
| 2026-04-26 12:38 | 45.17560 | 17.35509 | 29420 ft | 446 kts | 142° |
| 2026-04-26 12:39 | 45.15097 | 17.38203 | 29841 ft | 448 kts | 142° |
| 2026-04-26 12:39 | 45.12615 | 17.40916 | 30252 ft | 451 kts | 142° |
| 2026-04-26 12:39 | 45.10132 | 17.43668 | 30574 ft | 453 kts | 142° |
| 2026-04-26 12:39 | 45.07652 | 17.46459 | 30899 ft | 456 kts | 142° |
| 2026-04-26 12:40 | 45.05197 | 17.49243 | 31201 ft | 458 kts | 141° |
| 2026-04-26 12:40 | 45.02702 | 17.52075 | 31508 ft | 461 kts | 142° |
| 2026-04-26 12:40 | 45.00186 | 17.54915 | 31817 ft | 463 kts | 142° |
| 2026-04-26 12:40 | 44.97650 | 17.57761 | 32230 ft | 463 kts | 142° |
| 2026-04-26 12:41 | 44.95122 | 17.60588 | 32679 ft | 462 kts | 142° |
| 2026-04-26 12:41 | 44.92596 | 17.63410 | 33042 ft | 463 kts | 142° |
| 2026-04-26 12:41 | 44.90108 | 17.66183 | 33124 ft | 456 kts | 142° |
| 2026-04-26 12:41 | 44.87653 | 17.68915 | 33130 ft | 444 kts | 142° |
| 2026-04-26 12:42 | 44.85239 | 17.71598 | 33134 ft | 439 kts | 142° |
| 2026-04-26 12:42 | 44.80461 | 17.76918 | 33129 ft | 437 kts | 142° |
| 2026-04-26 12:43 | 44.75695 | 17.82215 | 33119 ft | 436 kts | 142° |
| 2026-04-26 12:43 | 44.70920 | 17.87512 | 33127 ft | 436 kts | 142° |
| 2026-04-26 12:44 | 44.66174 | 17.92765 | 33123 ft | 436 kts | 142° |
| 2026-04-26 12:44 | 44.61401 | 17.98031 | 33121 ft | 436 kts | 142° |
| 2026-04-26 12:45 | 44.56614 | 18.03288 | 33127 ft | 436 kts | 142° |
| 2026-04-26 12:45 | 44.51828 | 18.08540 | 33119 ft | 436 kts | 142° |
| 2026-04-26 12:46 | 44.47078 | 18.13741 | 33111 ft | 436 kts | 142° |
| 2026-04-26 12:46 | 44.42286 | 18.18983 | 33110 ft | 436 kts | 142° |
| 2026-04-26 12:47 | 44.37504 | 18.24212 | 33109 ft | 436 kts | 142° |
| 2026-04-26 12:47 | 44.32704 | 18.29431 | 33105 ft | 437 kts | 142° |
| 2026-04-26 12:48 | 44.27900 | 18.34650 | 33094 ft | 437 kts | 142° |
| 2026-04-26 12:48 | 44.23120 | 18.39836 | 33096 ft | 438 kts | 142° |
| 2026-04-26 12:49 | 44.18320 | 18.45028 | 33105 ft | 437 kts | 142° |
| 2026-04-26 12:49 | 44.13500 | 18.50226 | 33103 ft | 438 kts | 143° |
| 2026-04-26 12:50 | 44.08680 | 18.55424 | 33096 ft | 438 kts | 143° |
| 2026-04-26 12:50 | 44.03851 | 18.60616 | 33089 ft | 438 kts | 143° |
| 2026-04-26 12:51 | 43.99053 | 18.65755 | 33095 ft | 437 kts | 143° |
| 2026-04-26 12:51 | 43.94222 | 18.70930 | 33098 ft | 437 kts | 143° |
| 2026-04-26 12:52 | 43.89394 | 18.76079 | 33095 ft | 437 kts | 143° |
| 2026-04-26 12:52 | 43.84601 | 18.81190 | 33097 ft | 437 kts | 143° |
| 2026-04-26 12:53 | 43.79778 | 18.86334 | 33084 ft | 437 kts | 143° |
| 2026-04-26 12:53 | 43.74945 | 18.91460 | 33082 ft | 437 kts | 143° |
| 2026-04-26 12:54 | 43.70141 | 18.96538 | 33078 ft | 437 kts | 143° |
| 2026-04-26 12:54 | 43.65290 | 19.01665 | 33077 ft | 438 kts | 143° |
| 2026-04-26 12:55 | 43.60444 | 19.06781 | 33075 ft | 438 kts | 143° |
| 2026-04-26 12:55 | 43.55597 | 19.11879 | 33067 ft | 438 kts | 143° |
| 2026-04-26 12:56 | 43.50791 | 19.16988 | 33068 ft | 438 kts | 142° |
| 2026-04-26 12:56 | 43.46084 | 19.22348 | 33074 ft | 438 kts | 141° |
| 2026-04-26 12:57 | 43.41449 | 19.27733 | 33066 ft | 439 kts | 141° |
| 2026-04-26 12:57 | 43.36742 | 19.33110 | 33068 ft | 439 kts | 141° |
| 2026-04-26 12:58 | 43.29646 | 19.41085 | 33062 ft | 439 kts | 142° |
| 2026-04-26 12:58 | 43.24909 | 19.46395 | 33068 ft | 439 kts | 142° |
| 2026-04-26 12:59 | 43.20210 | 19.51669 | 33065 ft | 440 kts | 142° |
| 2026-04-26 12:59 | 43.15472 | 19.56981 | 33063 ft | 440 kts | 142° |
| 2026-04-26 13:00 | 43.10729 | 19.62292 | 33060 ft | 440 kts | 142° |
| 2026-04-26 13:00 | 43.05981 | 19.67606 | 33059 ft | 440 kts | 142° |
| 2026-04-26 13:01 | 43.01234 | 19.72899 | 33060 ft | 440 kts | 142° |
| 2026-04-26 13:01 | 42.96496 | 19.78162 | 33062 ft | 440 kts | 142° |
| 2026-04-26 13:02 | 42.91739 | 19.83440 | 33054 ft | 440 kts | 142° |
| 2026-04-26 13:02 | 42.86964 | 19.88711 | 33053 ft | 441 kts | 142° |
| 2026-04-26 13:03 | 42.82223 | 19.93952 | 33052 ft | 441 kts | 142° |
| 2026-04-26 13:03 | 42.79827 | 19.96592 | 32933 ft | 443 kts | 142° |
| 2026-04-26 13:03 | 42.77434 | 19.99229 | 32383 ft | 442 kts | 142° |
| 2026-04-26 13:04 | 42.75083 | 20.01937 | 31832 ft | 440 kts | 137° |
| 2026-04-26 13:04 | 42.73033 | 20.05015 | 31324 ft | 438 kts | 130° |
| 2026-04-26 13:04 | 42.71132 | 20.08173 | 30815 ft | 435 kts | 130° |
| 2026-04-26 13:04 | 42.69213 | 20.11352 | 30307 ft | 433 kts | 130° |
| 2026-04-26 13:05 | 42.67306 | 20.14503 | 29756 ft | 431 kts | 130° |
| 2026-04-26 13:05 | 42.65412 | 20.17628 | 29264 ft | 426 kts | 130° |
| 2026-04-26 13:05 | 42.63526 | 20.20734 | 28772 ft | 423 kts | 130° |
| 2026-04-26 13:05 | 42.61655 | 20.23810 | 28299 ft | 419 kts | 130° |
| 2026-04-26 13:06 | 42.59823 | 20.26817 | 27845 ft | 416 kts | 130° |
| 2026-04-26 13:06 | 42.57979 | 20.29838 | 27387 ft | 413 kts | 130° |
| 2026-04-26 13:06 | 42.56150 | 20.32836 | 26948 ft | 411 kts | 130° |
| 2026-04-26 13:06 | 42.54333 | 20.35812 | 26515 ft | 408 kts | 130° |
| 2026-04-26 13:07 | 42.52520 | 20.38777 | 26070 ft | 406 kts | 130° |
| 2026-04-26 13:07 | 42.50741 | 20.41684 | 25633 ft | 404 kts | 130° |
| 2026-04-26 13:07 | 42.48945 | 20.44615 | 25192 ft | 401 kts | 130° |
| 2026-04-26 13:07 | 42.47159 | 20.47531 | 24742 ft | 400 kts | 131° |
| 2026-04-26 13:08 | 42.45982 | 20.49451 | 24432 ft | 399 kts | 131° |
| 2026-04-26 13:08 | 42.43637 | 20.53270 | 23820 ft | 397 kts | 131° |
| 2026-04-26 13:08 | 42.41870 | 20.56143 | 23308 ft | 396 kts | 131° |
| 2026-04-26 13:08 | 42.40703 | 20.58040 | 22992 ft | 394 kts | 131° |
| 2026-04-26 13:09 | 42.38952 | 20.60888 | 22530 ft | 390 kts | 130° |
| 2026-04-26 13:09 | 42.37217 | 20.63707 | 22057 ft | 388 kts | 130° |
| 2026-04-26 13:09 | 42.35496 | 20.66505 | 21602 ft | 385 kts | 130° |
| 2026-04-26 13:09 | 42.33805 | 20.69250 | 21152 ft | 383 kts | 130° |
| 2026-04-26 13:10 | 42.32098 | 20.72010 | 20694 ft | 381 kts | 130° |
| 2026-04-26 13:10 | 42.30397 | 20.74750 | 20243 ft | 378 kts | 131° |
| 2026-04-26 13:10 | 42.28706 | 20.77474 | 19809 ft | 376 kts | 130° |
| 2026-04-26 13:10 | 42.27052 | 20.80144 | 19364 ft | 374 kts | 130° |
| 2026-04-26 13:11 | 42.25378 | 20.82848 | 18922 ft | 373 kts | 130° |
| 2026-04-26 13:11 | 42.23712 | 20.85534 | 18487 ft | 372 kts | 130° |
| 2026-04-26 13:11 | 42.22051 | 20.88213 | 17997 ft | 371 kts | 130° |
| 2026-04-26 13:11 | 42.20401 | 20.90871 | 17582 ft | 367 kts | 130° |
| 2026-04-26 13:12 | 42.18784 | 20.93473 | 17155 ft | 364 kts | 130° |
| 2026-04-26 13:12 | 42.17160 | 20.96082 | 16747 ft | 361 kts | 130° |
| 2026-04-26 13:12 | 42.15550 | 20.98665 | 16333 ft | 359 kts | 130° |
| 2026-04-26 13:12 | 42.13946 | 21.01233 | 15909 ft | 357 kts | 130° |
| 2026-04-26 13:13 | 42.12356 | 21.03785 | 15502 ft | 353 kts | 129° |
| 2026-04-26 13:13 | 42.11006 | 21.06531 | 15099 ft | 349 kts | 117° |
| 2026-04-26 13:13 | 42.10045 | 21.09525 | 14701 ft | 347 kts | 111° |
| 2026-04-26 13:13 | 42.09144 | 21.12493 | 14312 ft | 346 kts | 111° |
| 2026-04-26 13:14 | 42.08225 | 21.15483 | 13905 ft | 345 kts | 111° |
| 2026-04-26 13:14 | 42.07305 | 21.18466 | 13469 ft | 343 kts | 111° |
| 2026-04-26 13:14 | 42.06389 | 21.21423 | 13067 ft | 340 kts | 111° |
| 2026-04-26 13:14 | 42.05492 | 21.24323 | 12660 ft | 338 kts | 111° |
| 2026-04-26 13:15 | 42.04592 | 21.27239 | 12256 ft | 336 kts | 111° |
| 2026-04-26 13:15 | 42.03696 | 21.30149 | 11843 ft | 334 kts | 111° |
| 2026-04-26 13:15 | 42.02812 | 21.33028 | 11435 ft | 331 kts | 111° |
| 2026-04-26 13:15 | 42.01935 | 21.35883 | 11033 ft | 329 kts | 110° |
| 2026-04-26 13:16 | 42.01060 | 21.38725 | 10595 ft | 328 kts | 111° |
| 2026-04-26 13:16 | 42.00186 | 21.41552 | 10164 ft | 327 kts | 111° |
| 2026-04-26 13:16 | 41.99321 | 21.44344 | 9995 ft | 317 kts | 110° |
| 2026-04-26 13:16 | 41.98496 | 21.47002 | 9827 ft | 307 kts | 110° |
| 2026-04-26 13:17 | 41.96865 | 21.52261 | 9075 ft | 302 kts | 110° |
| 2026-04-26 13:17 | 41.96055 | 21.54856 | 8676 ft | 299 kts | 110° |
| 2026-04-26 13:18 | 41.94466 | 21.59955 | 7868 ft | 295 kts | 110° |
| 2026-04-26 13:18 | 41.93674 | 21.62491 | 7480 ft | 293 kts | 110° |
| 2026-04-26 13:18 | 41.91737 | 21.67190 | 6867 ft | 286 kts | 138° |
| 2026-04-26 13:19 | 41.90026 | 21.68432 | 6728 ft | 277 kts | 161° |
| 2026-04-26 13:19 | 41.88192 | 21.69122 | 6481 ft | 272 kts | 166° |
| 2026-04-26 13:19 | 41.86362 | 21.69754 | 6151 ft | 270 kts | 166° |
| 2026-04-26 13:19 | 41.84553 | 21.70372 | 5823 ft | 267 kts | 165° |
| 2026-04-26 13:20 | 41.82760 | 21.70978 | 5492 ft | 263 kts | 166° |
| 2026-04-26 13:20 | 41.81006 | 21.71558 | 5171 ft | 261 kts | 165° |
| 2026-04-26 13:20 | 41.79244 | 21.72135 | 4841 ft | 257 kts | 165° |
| 2026-04-26 13:20 | 41.77538 | 21.72690 | 4513 ft | 247 kts | 165° |
| 2026-04-26 13:21 | 41.75886 | 21.72835 | 4175 ft | 238 kts | 196° |
| 2026-04-26 13:21 | 41.74911 | 21.72178 | 3951 ft | 230 kts | 224° |
| 2026-04-26 13:21 | 41.74222 | 21.69815 | 3659 ft | 202 kts | 284° |
| 2026-04-26 13:21 | 41.74953 | 21.68370 | 3605 ft | 186 kts | 333° |
| 2026-04-26 13:22 | 41.76165 | 21.68052 | 3618 ft | 172 kts | 1° |
| 2026-04-26 13:22 | 41.77312 | 21.68085 | 3602 ft | 161 kts | 1° |
| 2026-04-26 13:22 | 41.78446 | 21.68090 | 3617 ft | 165 kts | 354° |
| 2026-04-26 13:22 | 41.79567 | 21.67832 | 3606 ft | 163 kts | 349° |
| 2026-04-26 13:23 | 41.80672 | 21.67494 | 3606 ft | 161 kts | 347° |
| 2026-04-26 13:23 | 41.81758 | 21.67135 | 3569 ft | 160 kts | 348° |
| 2026-04-26 13:23 | 41.82823 | 21.66773 | 3411 ft | 160 kts | 347° |
| 2026-04-26 13:23 | 41.83893 | 21.66404 | 3217 ft | 156 kts | 347° |
| 2026-04-26 13:24 | 41.84961 | 21.66035 | 3007 ft | 160 kts | 346° |
| 2026-04-26 13:24 | 41.86046 | 21.65659 | 2783 ft | 160 kts | 346° |
| 2026-04-26 13:24 | 41.87057 | 21.65307 | 2566 ft | 143 kts | 346° |
| 2026-04-26 13:24 | 41.88000 | 21.64980 | 2365 ft | 137 kts | 346° |
| 2026-04-26 13:25 | 41.88914 | 21.64663 | 2169 ft | 133 kts | 346° |
| 2026-04-26 13:25 | 41.89800 | 21.64355 | 1969 ft | 131 kts | 345° |
| 2026-04-26 13:25 | 41.90683 | 21.64049 | 1781 ft | 131 kts | 347° |
| 2026-04-26 13:25 | 41.91541 | 21.63751 | 1590 ft | 126 kts | 347° |
| 2026-04-26 13:26 | 41.92399 | 21.63446 | 1418 ft | 127 kts | 347° |
| 2026-04-26 13:26 | 41.93257 | 21.63141 | 1178 ft | 130 kts | 347° |
| 2026-04-26 13:26 | 41.94125 | 21.62846 | 990 ft | 129 kts | 346° |
| 2026-04-26 13:26 | 41.94987 | 21.62552 | 835 ft | 126 kts | 347° |
| 2026-04-26 13:27 | 41.95759 | 21.62285 | 785 ft | 91 kts | 345° |
| 2026-04-26 13:27 | 41.96100 | 21.62166 | 788 ft | 27 kts | 345° |
| 2026-04-26 13:27 | 41.96271 | 21.62105 | 789 ft | 24 kts | 346° |
| 2026-04-26 13:27 | 41.96429 | 21.62052 | 790 ft | 22 kts | 346° |
| 2026-04-26 13:28 | 41.96514 | 21.62163 | 793 ft | 18 kts | 77° |
| 2026-04-26 13:28 | 41.96482 | 21.62299 | 793 ft | 18 kts | 162° |
| 2026-04-26 13:28 | 41.96362 | 21.62341 | 792 ft | 18 kts | 165° |
| 2026-04-26 13:28 | 41.96238 | 21.62384 | 792 ft | 19 kts | 166° |
| 2026-04-26 13:29 | 41.96127 | 21.62447 | 792 ft | 14 kts | 105° |
| 2026-04-26 13:29 | 41.96101 | 21.62512 | 793 ft | 12 kts | 154° |
| 2026-04-26 13:29 | 41.96068 | 21.62591 | 793 ft | 2 kts | 76° |
| 2026-04-26 13:29 | 41.96069 | 21.62595 | 793 ft | 0 kts | 76° |